sensor_id;sensor_type;location;lat;lon;timestamp;P1;durP1;ratioP1;P2;durP2;ratioP2
69894;SDS011;57172;52.034;5.090;2023-03-01T00:03:29;15.23;;;8.63;;
69894;SDS011;57172;52.034;5.090;2023-03-01T00:05:56;17.02;;;8.63;;
69894;SDS011;57172;52.034;5.090;2023-03-01T00:08:23;17.30;;;8.85;;
69894;SDS011;57172;52.034;5.090;2023-03-01T00:13:53;16.08;;;8.82;;
69894;SDS011;57172;52.034;5.090;2023-03-01T00:16:26;17.40;;;8.88;;
69894;SDS011;57172;52.034;5.090;2023-03-01T00:18:57;19.15;;;9.23;;
69894;SDS011;57172;52.034;5.090;2023-03-01T00:21:25;17.98;;;9.07;;
69894;SDS011;57172;52.034;5.090;2023-03-01T00:23:52;17.95;;;9.32;;
69894;SDS011;57172;52.034;5.090;2023-03-01T00:26:20;19.15;;;9.32;;
69894;SDS011;57172;52.034;5.090;2023-03-01T00:28:49;19.58;;;9.00;;
69894;SDS011;57172;52.034;5.090;2023-03-01T00:31:18;18.83;;;8.70;;
69894;SDS011;57172;52.034;5.090;2023-03-01T00:33:46;16.95;;;8.98;;
69894;SDS011;57172;52.034;5.090;2023-03-01T00:36:14;18.35;;;9.05;;
69894;SDS011;57172;52.034;5.090;2023-03-01T00:38:42;17.83;;;9.23;;
69894;SDS011;57172;52.034;5.090;2023-03-01T00:41:12;18.00;;;8.88;;
69894;SDS011;57172;52.034;5.090;2023-03-01T00:43:41;16.55;;;9.25;;
69894;SDS011;57172;52.034;5.090;2023-03-01T00:46:09;17.55;;;8.88;;
69894;SDS011;57172;52.034;5.090;2023-03-01T00:48:41;20.13;;;9.30;;
69894;SDS011;57172;52.034;5.090;2023-03-01T00:51:11;16.73;;;9.27;;
69894;SDS011;57172;52.034;5.090;2023-03-01T00:53:42;19.25;;;9.07;;
69894;SDS011;57172;52.034;5.090;2023-03-01T00:56:10;16.23;;;9.27;;
69894;SDS011;57172;52.034;5.090;2023-03-01T00:58:38;18.02;;;9.05;;
69894;SDS011;57172;52.034;5.090;2023-03-01T01:03:53;18.65;;;8.98;;
69894;SDS011;57172;52.034;5.090;2023-03-01T01:06:26;18.27;;;8.82;;
69894;SDS011;57172;52.034;5.090;2023-03-01T01:09:00;16.90;;;9.63;;
69894;SDS011;57172;52.034;5.090;2023-03-01T01:11:28;18.38;;;9.60;;
69894;SDS011;57172;52.034;5.090;2023-03-01T01:13:56;18.15;;;9.30;;
69894;SDS011;57172;52.034;5.090;2023-03-01T01:16:24;18.52;;;9.55;;
69894;SDS011;57172;52.034;5.090;2023-03-01T01:18:53;18.27;;;9.95;;
69894;SDS011;57172;52.034;5.090;2023-03-01T01:21:21;20.48;;;9.38;;
69894;SDS011;57172;52.034;5.090;2023-03-01T01:23:49;18.60;;;9.77;;
69894;SDS011;57172;52.034;5.090;2023-03-01T01:26:18;18.45;;;9.68;;
69894;SDS011;57172;52.034;5.090;2023-03-01T01:28:50;20.20;;;9.63;;
69894;SDS011;57172;52.034;5.090;2023-03-01T01:31:18;19.27;;;9.63;;
69894;SDS011;57172;52.034;5.090;2023-03-01T01:33:46;20.52;;;10.38;;
69894;SDS011;57172;52.034;5.090;2023-03-01T01:36:13;19.13;;;9.63;;
69894;SDS011;57172;52.034;5.090;2023-03-01T01:38:40;18.10;;;9.77;;
69894;SDS011;57172;52.034;5.090;2023-03-01T01:41:08;20.48;;;9.82;;
69894;SDS011;57172;52.034;5.090;2023-03-01T01:43:40;18.83;;;9.52;;
69894;SDS011;57172;52.034;5.090;2023-03-01T01:51:45;19.63;;;9.40;;
69894;SDS011;57172;52.034;5.090;2023-03-01T01:54:19;19.90;;;9.55;;
69894;SDS011;57172;52.034;5.090;2023-03-01T01:56:52;19.95;;;10.02;;
69894;SDS011;57172;52.034;5.090;2023-03-01T01:59:23;20.05;;;9.55;;
69894;SDS011;57172;52.034;5.090;2023-03-01T02:01:51;19.45;;;9.35;;
69894;SDS011;57172;52.034;5.090;2023-03-01T02:04:19;20.15;;;10.18;;
69894;SDS011;57172;52.034;5.090;2023-03-01T02:06:51;21.10;;;9.80;;
69894;SDS011;57172;52.034;5.090;2023-03-01T02:09:24;19.35;;;9.93;;
69894;SDS011;57172;52.034;5.090;2023-03-01T02:11:53;17.83;;;9.27;;
69894;SDS011;57172;52.034;5.090;2023-03-01T02:14:20;19.10;;;9.80;;
69894;SDS011;57172;52.034;5.090;2023-03-01T02:16:47;21.35;;;10.18;;
69894;SDS011;57172;52.034;5.090;2023-03-01T02:19:59;19.13;;;9.90;;
69894;SDS011;57172;52.034;5.090;2023-03-01T02:27:38;26.00;;;10.50;;
69894;SDS011;57172;52.034;5.090;2023-03-01T02:30:14;20.05;;;10.38;;
69894;SDS011;57172;52.034;5.090;2023-03-01T02:32:42;20.38;;;10.05;;
69894;SDS011;57172;52.034;5.090;2023-03-01T02:35:10;18.90;;;10.18;;
69894;SDS011;57172;52.034;5.090;2023-03-01T02:37:40;19.88;;;10.48;;
69894;SDS011;57172;52.034;5.090;2023-03-01T02:40:10;19.52;;;10.07;;
69894;SDS011;57172;52.034;5.090;2023-03-01T02:42:47;19.00;;;10.50;;
69894;SDS011;57172;52.034;5.090;2023-03-01T02:45:18;20.17;;;10.75;;
69894;SDS011;57172;52.034;5.090;2023-03-01T02:47:45;22.10;;;10.65;;
69894;SDS011;57172;52.034;5.090;2023-03-01T02:55:50;19.23;;;10.57;;
69894;SDS011;57172;52.034;5.090;2023-03-01T02:58:17;20.88;;;10.40;;
69894;SDS011;57172;52.034;5.090;2023-03-01T03:00:44;21.33;;;11.02;;
69894;SDS011;57172;52.034;5.090;2023-03-01T03:03:15;19.70;;;10.48;;
69894;SDS011;57172;52.034;5.090;2023-03-01T03:05:47;18.85;;;10.43;;
69894;SDS011;57172;52.034;5.090;2023-03-01T03:08:14;20.65;;;11.23;;
69894;SDS011;57172;52.034;5.090;2023-03-01T03:10:51;22.10;;;11.00;;
69894;SDS011;57172;52.034;5.090;2023-03-01T03:13:18;22.83;;;10.73;;
69894;SDS011;57172;52.034;5.090;2023-03-01T03:15:45;20.88;;;10.18;;
69894;SDS011;57172;52.034;5.090;2023-03-01T03:18:13;21.73;;;10.57;;
69894;SDS011;57172;52.034;5.090;2023-03-01T03:20:42;19.67;;;10.55;;
69894;SDS011;57172;52.034;5.090;2023-03-01T03:23:10;23.58;;;11.32;;
69894;SDS011;57172;52.034;5.090;2023-03-01T03:25:37;20.38;;;10.32;;
69894;SDS011;57172;52.034;5.090;2023-03-01T03:28:05;21.98;;;11.38;;
69894;SDS011;57172;52.034;5.090;2023-03-01T03:30:39;22.80;;;11.40;;
69894;SDS011;57172;52.034;5.090;2023-03-01T03:33:07;21.17;;;10.90;;
69894;SDS011;57172;52.034;5.090;2023-03-01T03:35:43;22.90;;;11.35;;
69894;SDS011;57172;52.034;5.090;2023-03-01T03:38:12;22.48;;;11.00;;
69894;SDS011;57172;52.034;5.090;2023-03-01T03:40:44;21.15;;;11.00;;
69894;SDS011;57172;52.034;5.090;2023-03-01T03:43:14;22.58;;;10.63;;
69894;SDS011;57172;52.034;5.090;2023-03-01T03:45:44;21.92;;;10.52;;
69894;SDS011;57172;52.034;5.090;2023-03-01T03:48:12;22.35;;;10.75;;
69894;SDS011;57172;52.034;5.090;2023-03-01T03:50:40;20.35;;;10.75;;
69894;SDS011;57172;52.034;5.090;2023-03-01T03:53:09;20.40;;;10.52;;
69894;SDS011;57172;52.034;5.090;2023-03-01T03:55:38;21.88;;;10.43;;
69894;SDS011;57172;52.034;5.090;2023-03-01T03:58:06;22.27;;;10.27;;
69894;SDS011;57172;52.034;5.090;2023-03-01T04:00:42;20.55;;;10.75;;
69894;SDS011;57172;52.034;5.090;2023-03-01T04:03:11;21.48;;;10.85;;
69894;SDS011;57172;52.034;5.090;2023-03-01T04:05:40;21.40;;;10.77;;
69894;SDS011;57172;52.034;5.090;2023-03-01T04:08:07;19.05;;;10.32;;
69894;SDS011;57172;52.034;5.090;2023-03-01T04:10:43;20.88;;;10.85;;
69894;SDS011;57172;52.034;5.090;2023-03-01T04:13:12;21.65;;;10.68;;
69894;SDS011;57172;52.034;5.090;2023-03-01T04:15:41;21.52;;;11.05;;
69894;SDS011;57172;52.034;5.090;2023-03-01T04:18:12;23.27;;;11.80;;
69894;SDS011;57172;52.034;5.090;2023-03-01T04:20:40;21.48;;;10.82;;
69894;SDS011;57172;52.034;5.090;2023-03-01T04:23:08;20.88;;;11.05;;
69894;SDS011;57172;52.034;5.090;2023-03-01T04:25:40;22.90;;;11.80;;
69894;SDS011;57172;52.034;5.090;2023-03-01T04:28:15;22.80;;;11.25;;
69894;SDS011;57172;52.034;5.090;2023-03-01T04:30:42;22.77;;;10.82;;
69894;SDS011;57172;52.034;5.090;2023-03-01T04:33:10;24.23;;;11.13;;
69894;SDS011;57172;52.034;5.090;2023-03-01T04:35:37;24.27;;;11.20;;
69894;SDS011;57172;52.034;5.090;2023-03-01T04:38:05;24.08;;;11.75;;
69894;SDS011;57172;52.034;5.090;2023-03-01T04:40:32;23.48;;;12.13;;
69894;SDS011;57172;52.034;5.090;2023-03-01T04:43:00;22.50;;;11.13;;
69894;SDS011;57172;52.034;5.090;2023-03-01T04:45:28;21.08;;;11.30;;
69894;SDS011;57172;52.034;5.090;2023-03-01T04:47:55;22.38;;;11.50;;
69894;SDS011;57172;52.034;5.090;2023-03-01T04:50:24;23.08;;;11.60;;
69894;SDS011;57172;52.034;5.090;2023-03-01T04:52:51;21.42;;;11.18;;
69894;SDS011;57172;52.034;5.090;2023-03-01T04:55:19;24.55;;;12.07;;
69894;SDS011;57172;52.034;5.090;2023-03-01T04:57:46;24.05;;;12.15;;
69894;SDS011;57172;52.034;5.090;2023-03-01T05:00:13;24.00;;;10.65;;
69894;SDS011;57172;52.034;5.090;2023-03-01T05:02:47;21.38;;;10.90;;
69894;SDS011;57172;52.034;5.090;2023-03-01T05:05:35;20.65;;;10.75;;
69894;SDS011;57172;52.034;5.090;2023-03-01T05:08:05;23.20;;;11.40;;
69894;SDS011;57172;52.034;5.090;2023-03-01T05:10:34;22.27;;;11.07;;
69894;SDS011;57172;52.034;5.090;2023-03-01T05:13:02;22.20;;;11.32;;
69894;SDS011;57172;52.034;5.090;2023-03-01T05:15:30;21.90;;;10.25;;
69894;SDS011;57172;52.034;5.090;2023-03-01T05:17:58;23.48;;;10.70;;
69894;SDS011;57172;52.034;5.090;2023-03-01T05:20:26;25.15;;;11.60;;
69894;SDS011;57172;52.034;5.090;2023-03-01T05:22:55;22.38;;;11.43;;
69894;SDS011;57172;52.034;5.090;2023-03-01T05:25:25;22.02;;;10.65;;
69894;SDS011;57172;52.034;5.090;2023-03-01T05:27:52;24.13;;;11.55;;
69894;SDS011;57172;52.034;5.090;2023-03-01T05:30:19;23.15;;;10.90;;
69894;SDS011;57172;52.034;5.090;2023-03-01T05:32:47;20.55;;;10.80;;
69894;SDS011;57172;52.034;5.090;2023-03-01T05:35:16;23.48;;;10.63;;
69894;SDS011;57172;52.034;5.090;2023-03-01T05:37:45;22.63;;;11.05;;
69894;SDS011;57172;52.034;5.090;2023-03-01T05:40:15;22.70;;;11.02;;
69894;SDS011;57172;52.034;5.090;2023-03-01T05:42:48;27.27;;;11.10;;
69894;SDS011;57172;52.034;5.090;2023-03-01T05:45:21;21.48;;;10.27;;
69894;SDS011;57172;52.034;5.090;2023-03-01T05:47:50;26.33;;;10.80;;
69894;SDS011;57172;52.034;5.090;2023-03-01T05:50:18;23.65;;;11.02;;
69894;SDS011;57172;52.034;5.090;2023-03-01T05:52:48;23.88;;;10.40;;
69894;SDS011;57172;52.034;5.090;2023-03-01T05:55:16;26.48;;;10.60;;
69894;SDS011;57172;52.034;5.090;2023-03-01T05:57:45;22.17;;;10.13;;
69894;SDS011;57172;52.034;5.090;2023-03-01T06:00:12;22.08;;;10.45;;
69894;SDS011;57172;52.034;5.090;2023-03-01T06:02:40;28.42;;;10.10;;
69894;SDS011;57172;52.034;5.090;2023-03-01T06:05:08;21.38;;;10.27;;
69894;SDS011;57172;52.034;5.090;2023-03-01T06:07:36;23.27;;;10.15;;
69894;SDS011;57172;52.034;5.090;2023-03-01T06:10:03;21.25;;;10.25;;
69894;SDS011;57172;52.034;5.090;2023-03-01T06:12:31;22.15;;;10.73;;
69894;SDS011;57172;52.034;5.090;2023-03-01T06:14:59;22.77;;;10.02;;
69894;SDS011;57172;52.034;5.090;2023-03-01T06:17:28;22.65;;;10.75;;
69894;SDS011;57172;52.034;5.090;2023-03-01T06:19:56;23.38;;;10.38;;
69894;SDS011;57172;52.034;5.090;2023-03-01T06:22:23;22.33;;;10.90;;
69894;SDS011;57172;52.034;5.090;2023-03-01T06:24:50;26.63;;;11.10;;
69894;SDS011;57172;52.034;5.090;2023-03-01T06:27:17;22.60;;;10.40;;
69894;SDS011;57172;52.034;5.090;2023-03-01T06:29:44;22.42;;;10.48;;
69894;SDS011;57172;52.034;5.090;2023-03-01T06:32:10;20.80;;;10.18;;
69894;SDS011;57172;52.034;5.090;2023-03-01T06:34:37;19.98;;;9.65;;
69894;SDS011;57172;52.034;5.090;2023-03-01T06:37:04;22.10;;;9.60;;
69894;SDS011;57172;52.034;5.090;2023-03-01T06:39:32;21.63;;;9.90;;
69894;SDS011;57172;52.034;5.090;2023-03-01T06:41:59;21.95;;;9.65;;
69894;SDS011;57172;52.034;5.090;2023-03-01T06:44:26;20.20;;;9.82;;
69894;SDS011;57172;52.034;5.090;2023-03-01T06:46:53;19.10;;;9.65;;
69894;SDS011;57172;52.034;5.090;2023-03-01T06:49:20;21.98;;;10.07;;
69894;SDS011;57172;52.034;5.090;2023-03-01T06:51:47;20.05;;;9.80;;
69894;SDS011;57172;52.034;5.090;2023-03-01T06:54:14;24.25;;;9.68;;
69894;SDS011;57172;52.034;5.090;2023-03-01T06:56:41;19.15;;;9.50;;
69894;SDS011;57172;52.034;5.090;2023-03-01T06:59:08;18.60;;;9.05;;
69894;SDS011;57172;52.034;5.090;2023-03-01T07:01:35;18.30;;;8.88;;
69894;SDS011;57172;52.034;5.090;2023-03-01T07:04:02;18.58;;;9.27;;
69894;SDS011;57172;52.034;5.090;2023-03-01T07:06:28;20.02;;;9.25;;
69894;SDS011;57172;52.034;5.090;2023-03-01T07:08:56;18.23;;;8.70;;
69894;SDS011;57172;52.034;5.090;2023-03-01T07:11:23;19.70;;;9.20;;
69894;SDS011;57172;52.034;5.090;2023-03-01T07:13:50;16.52;;;8.25;;
69894;SDS011;57172;52.034;5.090;2023-03-01T07:16:16;20.33;;;8.45;;
69894;SDS011;57172;52.034;5.090;2023-03-01T07:18:44;15.90;;;8.15;;
69894;SDS011;57172;52.034;5.090;2023-03-01T07:21:11;16.90;;;8.13;;
69894;SDS011;57172;52.034;5.090;2023-03-01T07:23:40;16.60;;;7.93;;
69894;SDS011;57172;52.034;5.090;2023-03-01T07:26:07;17.85;;;7.50;;
69894;SDS011;57172;52.034;5.090;2023-03-01T07:28:34;23.67;;;7.18;;
69894;SDS011;57172;52.034;5.090;2023-03-01T07:31:02;13.25;;;7.15;;
69894;SDS011;57172;52.034;5.090;2023-03-01T07:33:29;14.65;;;7.05;;
69894;SDS011;57172;52.034;5.090;2023-03-01T07:35:57;15.65;;;7.60;;
69894;SDS011;57172;52.034;5.090;2023-03-01T07:38:25;15.45;;;7.82;;
69894;SDS011;57172;52.034;5.090;2023-03-01T07:40:53;14.25;;;7.40;;
69894;SDS011;57172;52.034;5.090;2023-03-01T07:43:20;18.83;;;7.53;;
69894;SDS011;57172;52.034;5.090;2023-03-01T07:45:47;18.10;;;7.18;;
69894;SDS011;57172;52.034;5.090;2023-03-01T07:48:14;15.02;;;7.50;;
69894;SDS011;57172;52.034;5.090;2023-03-01T07:50:40;16.25;;;7.35;;
69894;SDS011;57172;52.034;5.090;2023-03-01T07:53:08;15.35;;;7.13;;
69894;SDS011;57172;52.034;5.090;2023-03-01T07:55:36;12.85;;;6.97;;
69894;SDS011;57172;52.034;5.090;2023-03-01T07:58:03;14.38;;;7.35;;
69894;SDS011;57172;52.034;5.090;2023-03-01T08:00:30;19.30;;;8.02;;
69894;SDS011;57172;52.034;5.090;2023-03-01T08:03:01;17.52;;;8.57;;
69894;SDS011;57172;52.034;5.090;2023-03-01T08:05:28;14.90;;;8.20;;
69894;SDS011;57172;52.034;5.090;2023-03-01T08:07:55;16.23;;;8.40;;
69894;SDS011;57172;52.034;5.090;2023-03-01T08:10:22;14.18;;;7.68;;
69894;SDS011;57172;52.034;5.090;2023-03-01T08:12:50;13.35;;;6.80;;
69894;SDS011;57172;52.034;5.090;2023-03-01T08:15:18;13.40;;;6.80;;
69894;SDS011;57172;52.034;5.090;2023-03-01T08:17:46;10.48;;;6.57;;
69894;SDS011;57172;52.034;5.090;2023-03-01T08:20:15;12.70;;;6.90;;
69894;SDS011;57172;52.034;5.090;2023-03-01T08:22:45;12.80;;;6.72;;
69894;SDS011;57172;52.034;5.090;2023-03-01T08:25:12;11.32;;;6.30;;
69894;SDS011;57172;52.034;5.090;2023-03-01T08:27:38;13.57;;;7.47;;
69894;SDS011;57172;52.034;5.090;2023-03-01T08:30:05;10.20;;;6.28;;
69894;SDS011;57172;52.034;5.090;2023-03-01T08:32:37;11.95;;;6.43;;
69894;SDS011;57172;52.034;5.090;2023-03-01T08:35:05;11.30;;;6.38;;
69894;SDS011;57172;52.034;5.090;2023-03-01T08:37:32;11.63;;;6.85;;
69894;SDS011;57172;52.034;5.090;2023-03-01T08:39:59;10.77;;;6.80;;
69894;SDS011;57172;52.034;5.090;2023-03-01T08:42:26;10.80;;;6.57;;
69894;SDS011;57172;52.034;5.090;2023-03-01T08:44:53;10.85;;;6.85;;
69894;SDS011;57172;52.034;5.090;2023-03-01T08:47:20;11.30;;;6.63;;
69894;SDS011;57172;52.034;5.090;2023-03-01T08:49:48;12.07;;;7.18;;
69894;SDS011;57172;52.034;5.090;2023-03-01T08:52:16;10.77;;;6.90;;
69894;SDS011;57172;52.034;5.090;2023-03-01T08:54:43;10.88;;;6.70;;
69894;SDS011;57172;52.034;5.090;2023-03-01T08:57:10;9.32;;;6.47;;
69894;SDS011;57172;52.034;5.090;2023-03-01T08:59:36;9.50;;;6.63;;
69894;SDS011;57172;52.034;5.090;2023-03-01T09:02:04;9.48;;;6.35;;
69894;SDS011;57172;52.034;5.090;2023-03-01T09:04:32;10.53;;;6.33;;
69894;SDS011;57172;52.034;5.090;2023-03-01T09:06:59;9.07;;;6.55;;
69894;SDS011;57172;52.034;5.090;2023-03-01T09:09:26;11.18;;;5.97;;
69894;SDS011;57172;52.034;5.090;2023-03-01T09:11:53;8.63;;;5.93;;
69894;SDS011;57172;52.034;5.090;2023-03-01T09:14:20;9.90;;;5.57;;
69894;SDS011;57172;52.034;5.090;2023-03-01T09:16:47;8.53;;;6.00;;
69894;SDS011;57172;52.034;5.090;2023-03-01T09:19:14;9.60;;;6.35;;
69894;SDS011;57172;52.034;5.090;2023-03-01T09:21:40;8.85;;;6.30;;
69894;SDS011;57172;52.034;5.090;2023-03-01T09:24:14;8.88;;;6.47;;
69894;SDS011;57172;52.034;5.090;2023-03-01T09:26:41;9.40;;;6.50;;
69894;SDS011;57172;52.034;5.090;2023-03-01T09:29:09;12.13;;;6.63;;
69894;SDS011;57172;52.034;5.090;2023-03-01T09:31:36;9.27;;;6.60;;
69894;SDS011;57172;52.034;5.090;2023-03-01T09:34:04;9.27;;;6.22;;
69894;SDS011;57172;52.034;5.090;2023-03-01T09:36:31;8.95;;;6.40;;
69894;SDS011;57172;52.034;5.090;2023-03-01T09:38:59;8.50;;;5.72;;
69894;SDS011;57172;52.034;5.090;2023-03-01T09:44:20;8.50;;;5.35;;
69894;SDS011;57172;52.034;5.090;2023-03-01T09:46:59;8.13;;;5.60;;
69894;SDS011;57172;52.034;5.090;2023-03-01T09:49:36;10.55;;;5.93;;
69894;SDS011;57172;52.034;5.090;2023-03-01T09:55:05;7.27;;;5.10;;
69894;SDS011;57172;52.034;5.090;2023-03-01T10:00:44;7.40;;;5.05;;
69894;SDS011;57172;52.034;5.090;2023-03-01T10:08:21;10.63;;;4.70;;
69894;SDS011;57172;52.034;5.090;2023-03-01T10:11:03;6.78;;;4.45;;
69894;SDS011;57172;52.034;5.090;2023-03-01T10:13:45;6.45;;;4.30;;
69894;SDS011;57172;52.034;5.090;2023-03-01T10:19:05;7.72;;;4.20;;
69894;SDS011;57172;52.034;5.090;2023-03-01T10:21:41;5.70;;;3.80;;
69894;SDS011;57172;52.034;5.090;2023-03-01T10:24:13;6.65;;;4.30;;
69894;SDS011;57172;52.034;5.090;2023-03-01T10:29:13;6.32;;;4.40;;
69894;SDS011;57172;52.034;5.090;2023-03-01T10:34:11;5.70;;;3.93;;
69894;SDS011;57172;52.034;5.090;2023-03-01T10:36:43;7.50;;;4.22;;
69894;SDS011;57172;52.034;5.090;2023-03-01T10:39:18;5.80;;;4.40;;
69894;SDS011;57172;52.034;5.090;2023-03-01T10:47:15;6.27;;;4.37;;
69894;SDS011;57172;52.034;5.090;2023-03-01T10:49:54;6.43;;;4.10;;
69894;SDS011;57172;52.034;5.090;2023-03-01T10:52:33;6.88;;;4.10;;
69894;SDS011;57172;52.034;5.090;2023-03-01T10:55:23;6.70;;;4.00;;
69894;SDS011;57172;52.034;5.090;2023-03-01T11:00:52;7.50;;;4.40;;
69894;SDS011;57172;52.034;5.090;2023-03-01T11:03:21;6.63;;;4.60;;
69894;SDS011;57172;52.034;5.090;2023-03-01T11:05:54;7.97;;;4.40;;
69894;SDS011;57172;52.034;5.090;2023-03-01T11:08:36;7.40;;;4.55;;
69894;SDS011;57172;52.034;5.090;2023-03-01T11:16:59;5.93;;;4.10;;
69894;SDS011;57172;52.034;5.090;2023-03-01T11:19:30;5.97;;;3.90;;
69894;SDS011;57172;52.034;5.090;2023-03-01T11:22:17;5.72;;;3.90;;
69894;SDS011;57172;52.034;5.090;2023-03-01T11:24:47;6.30;;;3.75;;
69894;SDS011;57172;52.034;5.090;2023-03-01T11:27:36;8.30;;;4.40;;
69894;SDS011;57172;52.034;5.090;2023-03-01T11:32:40;5.32;;;3.85;;
69894;SDS011;57172;52.034;5.090;2023-03-01T11:35:16;5.95;;;4.30;;
69894;SDS011;57172;52.034;5.090;2023-03-01T11:40:42;6.83;;;4.10;;
69894;SDS011;57172;52.034;5.090;2023-03-01T12:03:39;6.43;;;4.00;;
69894;SDS011;57172;52.034;5.090;2023-03-01T12:12:23;5.75;;;3.85;;
69894;SDS011;57172;52.034;5.090;2023-03-01T12:18:13;5.97;;;3.78;;
69894;SDS011;57172;52.034;5.090;2023-03-01T12:29:30;7.55;;;3.40;;
69894;SDS011;57172;52.034;5.090;2023-03-01T12:41:11;5.90;;;3.50;;
69894;SDS011;57172;52.034;5.090;2023-03-01T12:49:16;6.30;;;3.42;;
69894;SDS011;57172;52.034;5.090;2023-03-01T12:52:09;5.00;;;3.50;;
69894;SDS011;57172;52.034;5.090;2023-03-01T12:54:45;6.05;;;3.80;;
69894;SDS011;57172;52.034;5.090;2023-03-01T12:57:50;5.75;;;3.70;;
69894;SDS011;57172;52.034;5.090;2023-03-01T13:03:13;5.85;;;3.55;;
69894;SDS011;57172;52.034;5.090;2023-03-01T13:06:08;6.27;;;4.10;;
69894;SDS011;57172;52.034;5.090;2023-03-01T13:08:48;5.40;;;4.00;;
69894;SDS011;57172;52.034;5.090;2023-03-01T13:11:24;6.05;;;4.30;;
69894;SDS011;57172;52.034;5.090;2023-03-01T13:13:50;5.93;;;4.10;;
69894;SDS011;57172;52.034;5.090;2023-03-01T13:19:21;5.83;;;4.27;;
69894;SDS011;57172;52.034;5.090;2023-03-01T13:21:50;6.65;;;4.30;;
69894;SDS011;57172;52.034;5.090;2023-03-01T13:29:48;6.85;;;4.35;;
69894;SDS011;57172;52.034;5.090;2023-03-01T13:32:28;7.40;;;3.93;;
69894;SDS011;57172;52.034;5.090;2023-03-01T13:37:41;6.22;;;4.25;;
69894;SDS011;57172;52.034;5.090;2023-03-01T13:40:57;6.60;;;4.20;;
69894;SDS011;57172;52.034;5.090;2023-03-01T13:43:58;5.88;;;3.80;;
69894;SDS011;57172;52.034;5.090;2023-03-01T13:46:10;5.70;;;4.10;;
69894;SDS011;57172;52.034;5.090;2023-03-01T13:48:48;9.18;;;4.10;;
69894;SDS011;57172;52.034;5.090;2023-03-01T13:51:21;6.50;;;3.80;;
69894;SDS011;57172;52.034;5.090;2023-03-01T13:53:54;6.65;;;3.80;;
69894;SDS011;57172;52.034;5.090;2023-03-01T13:56:26;6.00;;;4.10;;
69894;SDS011;57172;52.034;5.090;2023-03-01T13:59:01;7.03;;;4.20;;
69894;SDS011;57172;52.034;5.090;2023-03-01T14:01:33;6.60;;;4.10;;
69894;SDS011;57172;52.034;5.090;2023-03-01T14:04:03;5.47;;;4.18;;
69894;SDS011;57172;52.034;5.090;2023-03-01T14:06:44;5.78;;;4.30;;
69894;SDS011;57172;52.034;5.090;2023-03-01T14:09:24;6.55;;;4.35;;
69894;SDS011;57172;52.034;5.090;2023-03-01T14:14:48;8.32;;;4.20;;
69894;SDS011;57172;52.034;5.090;2023-03-01T14:20:17;8.25;;;4.50;;
69894;SDS011;57172;52.034;5.090;2023-03-01T14:22:51;7.60;;;4.57;;
69894;SDS011;57172;52.034;5.090;2023-03-01T14:25:33;5.83;;;4.40;;
69894;SDS011;57172;52.034;5.090;2023-03-01T14:30:38;6.60;;;4.40;;
69894;SDS011;57172;52.034;5.090;2023-03-01T14:33:20;8.32;;;4.25;;
69894;SDS011;57172;52.034;5.090;2023-03-01T14:35:54;6.65;;;4.22;;
69894;SDS011;57172;52.034;5.090;2023-03-01T14:38:37;7.50;;;4.30;;
69894;SDS011;57172;52.034;5.090;2023-03-01T14:41:15;6.22;;;4.22;;
69894;SDS011;57172;52.034;5.090;2023-03-01T14:43:51;6.20;;;4.25;;
69894;SDS011;57172;52.034;5.090;2023-03-01T14:51:54;7.13;;;4.30;;
69894;SDS011;57172;52.034;5.090;2023-03-01T14:54:28;6.15;;;4.28;;
69894;SDS011;57172;52.034;5.090;2023-03-01T14:57:03;6.30;;;4.45;;
69894;SDS011;57172;52.034;5.090;2023-03-01T14:59:32;5.82;;;4.15;;
69894;SDS011;57172;52.034;5.090;2023-03-01T15:02:00;6.90;;;4.30;;
69894;SDS011;57172;52.034;5.090;2023-03-01T15:04:28;6.03;;;4.00;;
69894;SDS011;57172;52.034;5.090;2023-03-01T15:06:55;7.35;;;4.60;;
69894;SDS011;57172;52.034;5.090;2023-03-01T15:09:32;6.18;;;4.50;;
69894;SDS011;57172;52.034;5.090;2023-03-01T15:12:23;6.43;;;4.43;;
69894;SDS011;57172;52.034;5.090;2023-03-01T15:14:54;6.88;;;4.50;;
69894;SDS011;57172;52.034;5.090;2023-03-01T15:17:33;7.13;;;4.30;;
69894;SDS011;57172;52.034;5.090;2023-03-01T15:20:06;6.90;;;4.50;;
69894;SDS011;57172;52.034;5.090;2023-03-01T15:22:45;5.90;;;4.10;;
69894;SDS011;57172;52.034;5.090;2023-03-01T15:25:16;7.10;;;4.18;;
69894;SDS011;57172;52.034;5.090;2023-03-01T15:27:45;6.13;;;4.30;;
69894;SDS011;57172;52.034;5.090;2023-03-01T15:30:17;6.27;;;4.37;;
69894;SDS011;57172;52.034;5.090;2023-03-01T15:35:46;7.60;;;4.50;;
69894;SDS011;57172;52.034;5.090;2023-03-01T15:38:31;8.35;;;4.07;;
69894;SDS011;57172;52.034;5.090;2023-03-01T15:41:36;6.60;;;4.10;;
69894;SDS011;57172;52.034;5.090;2023-03-01T15:44:45;8.53;;;4.43;;
69894;SDS011;57172;52.034;5.090;2023-03-01T15:47:24;7.38;;;4.30;;
69894;SDS011;57172;52.034;5.090;2023-03-01T15:49:58;6.78;;;4.50;;
69894;SDS011;57172;52.034;5.090;2023-03-01T15:52:39;8.32;;;4.55;;
69894;SDS011;57172;52.034;5.090;2023-03-01T15:58:17;6.00;;;4.20;;
69894;SDS011;57172;52.034;5.090;2023-03-01T16:00:54;7.18;;;4.40;;
69894;SDS011;57172;52.034;5.090;2023-03-01T16:03:27;8.93;;;5.30;;
69894;SDS011;57172;52.034;5.090;2023-03-01T16:05:54;8.85;;;5.20;;
69894;SDS011;57172;52.034;5.090;2023-03-01T16:08:21;8.68;;;5.00;;
69894;SDS011;57172;52.034;5.090;2023-03-01T16:10:48;8.57;;;5.20;;
69894;SDS011;57172;52.034;5.090;2023-03-01T16:13:17;10.98;;;4.90;;
69894;SDS011;57172;52.034;5.090;2023-03-01T16:15:44;7.38;;;4.28;;
69894;SDS011;57172;52.034;5.090;2023-03-01T16:18:11;6.50;;;4.22;;
69894;SDS011;57172;52.034;5.090;2023-03-01T16:20:38;6.25;;;4.40;;
69894;SDS011;57172;52.034;5.090;2023-03-01T16:23:07;8.60;;;4.57;;
69894;SDS011;57172;52.034;5.090;2023-03-01T16:25:36;7.10;;;4.50;;
69894;SDS011;57172;52.034;5.090;2023-03-01T16:28:03;7.75;;;4.40;;
69894;SDS011;57172;52.034;5.090;2023-03-01T16:30:35;6.78;;;4.22;;
69894;SDS011;57172;52.034;5.090;2023-03-01T16:33:04;9.27;;;4.80;;
69894;SDS011;57172;52.034;5.090;2023-03-01T16:35:51;7.03;;;4.50;;
69894;SDS011;57172;52.034;5.090;2023-03-01T16:38:18;8.70;;;4.85;;
69894;SDS011;57172;52.034;5.090;2023-03-01T16:40:48;7.65;;;4.50;;
69894;SDS011;57172;52.034;5.090;2023-03-01T16:43:17;8.02;;;4.60;;
69894;SDS011;57172;52.034;5.090;2023-03-01T16:45:44;9.90;;;4.97;;
69894;SDS011;57172;52.034;5.090;2023-03-01T16:48:12;7.00;;;4.33;;
69894;SDS011;57172;52.034;5.090;2023-03-01T16:50:39;8.60;;;5.20;;
69894;SDS011;57172;52.034;5.090;2023-03-01T16:53:06;7.53;;;4.30;;
69894;SDS011;57172;52.034;5.090;2023-03-01T16:55:33;7.20;;;4.60;;
69894;SDS011;57172;52.034;5.090;2023-03-01T16:58:00;10.02;;;4.95;;
69894;SDS011;57172;52.034;5.090;2023-03-01T17:00:28;8.80;;;4.70;;
69894;SDS011;57172;52.034;5.090;2023-03-01T17:02:54;9.75;;;4.97;;
69894;SDS011;57172;52.034;5.090;2023-03-01T17:05:21;9.32;;;4.78;;
69894;SDS011;57172;52.034;5.090;2023-03-01T17:07:50;8.23;;;4.72;;
69894;SDS011;57172;52.034;5.090;2023-03-01T17:10:17;9.23;;;4.75;;
69894;SDS011;57172;52.034;5.090;2023-03-01T17:12:47;8.33;;;4.60;;
69894;SDS011;57172;52.034;5.090;2023-03-01T17:15:15;7.85;;;4.78;;
69894;SDS011;57172;52.034;5.090;2023-03-01T17:17:42;7.90;;;4.60;;
69894;SDS011;57172;52.034;5.090;2023-03-01T17:20:09;9.80;;;4.50;;
69894;SDS011;57172;52.034;5.090;2023-03-01T17:22:37;8.45;;;4.80;;
69894;SDS011;57172;52.034;5.090;2023-03-01T17:25:04;10.00;;;4.80;;
69894;SDS011;57172;52.034;5.090;2023-03-01T17:27:35;8.88;;;5.13;;
69894;SDS011;57172;52.034;5.090;2023-03-01T17:30:03;9.23;;;4.82;;